Time;durP1;ratioP1;P1;durP2;ratioP2;P2;SDS_P1;SDS_P2;PMS_P1;PMS_P2;Temp;Humidity;BMP_temperature;BMP_pressure;BME280_temperature;BME280_humidity;BME280_pressure;Samples;Min_cycle;Max_cycle;Signal;HPM_P1;HPM_P2
2024/01/25 00:00:36;;;;;;;5.00;2.00;;;;;;;8.54;60.60;98700.38;231399;198;138702;-56
2024/01/25 00:06:00;;;;;;;6.60;2.10;;;;;;;8.55;60.46;98702.63;231654;198;154240;-54
2024/01/25 00:11:03;;;;;;;10.50;2.40;;;;;;;8.52;60.58;98699.79;231537;202;138389;-54
2024/01/25 00:16:07;;;;;;;6.40;1.80;;;;;;;8.55;60.06;98709.52;231554;198;138518;-54
2024/01/25 00:21:10;;;;;;;11.10;2.40;;;;;;;8.61;59.39;98714.47;231646;198;154055;-54
2024/01/25 00:26:13;;;;;;;8.80;2.20;;;;;;;8.57;59.27;98714.02;231594;198;138352;-54
2024/01/25 00:31:16;;;;;;;7.10;2.20;;;;;;;8.54;59.56;98713.27;231588;198;138691;-54
2024/01/25 00:36:20;;;;;;;11.20;2.30;;;;;;;8.51;59.71;98725.28;231739;205;153859;-55
2024/01/25 00:41:23;;;;;;;7.20;1.70;;;;;;;8.53;59.62;98730.48;231576;202;138452;-55
2024/01/25 00:46:27;;;;;;;6.80;2.00;;;;;;;8.49;59.78;98714.97;231577;205;138639;-54
2024/01/25 00:51:30;;;;;;;7.90;2.20;;;;;;;8.48;59.77;98713.65;231620;198;153994;-56
2024/01/25 00:56:33;;;;;;;10.20;2.20;;;;;;;8.50;60.00;98718.63;231616;198;138252;-54
2024/01/25 01:01:37;;;;;;;10.10;2.10;;;;;;;8.44;62.58;98755.27;231398;202;138409;-54
2024/01/25 01:06:41;;;;;;;12.00;2.50;;;;;;;8.31;64.04;98741.46;231612;205;154714;-55
2024/01/25 01:11:44;;;;;;;9.10;2.50;;;;;;;8.19;64.45;98733.50;231700;197;138302;-56
2024/01/25 01:16:48;;;;;;;13.00;2.90;;;;;;;8.10;64.44;98737.37;231523;199;138218;-55
2024/01/25 01:21:52;;;;;;;9.10;2.50;;;;;;;8.04;64.23;98731.68;231556;205;155192;-55
2024/01/25 01:26:55;;;;;;;8.10;2.10;;;;;;;8.07;64.00;98725.52;231668;198;138484;-54
2024/01/25 01:31:59;;;;;;;6.70;2.40;;;;;;;8.12;63.74;98715.36;231721;197;137659;-55
2024/01/25 01:37:02;;;;;;;11.70;2.70;;;;;;;8.20;63.12;98710.30;231606;198;152900;-55
2024/01/25 01:42:05;;;;;;;9.90;2.80;;;;;;;8.24;62.05;98715.37;231720;205;138106;-53
2024/01/25 01:47:09;;;;;;;9.80;2.80;;;;;;;8.27;61.46;98711.13;231682;198;138264;-54
2024/01/25 01:52:12;;;;;;;6.70;2.20;;;;;;;8.31;61.15;98713.88;231642;198;153132;-52
2024/01/25 01:57:15;;;;;;;10.00;2.30;;;;;;;8.32;60.72;98706.44;231594;198;137796;-54
2024/01/25 02:02:19;;;;;;;9.60;2.60;;;;;;;8.35;60.94;98701.34;231649;198;138078;-55
2024/01/25 02:07:22;;;;;;;10.50;2.50;;;;;;;8.34;60.53;98699.39;231599;198;153350;-55
2024/01/25 02:12:26;;;;;;;7.80;2.40;;;;;;;8.34;60.44;98702.59;231344;205;138637;-53
2024/01/25 02:17:30;;;;;;;7.70;1.70;;;;;;;8.38;59.88;98713.16;231689;198;138483;-56
2024/01/25 02:22:34;;;;;;;9.20;2.20;;;;;;;8.38;59.23;98720.95;231619;202;153514;-56
2024/01/25 02:27:38;;;;;;;7.20;1.90;;;;;;;8.41;59.27;98708.95;231606;199;137686;-55
2024/01/25 02:32:45;;;;;;;7.20;2.40;;;;;;;8.40;58.95;98703.52;231651;198;137422;-55
2024/01/25 02:37:50;;;;;;;8.10;2.10;;;;;;;8.37;59.14;98706.13;231695;205;153675;-56
2024/01/25 02:42:53;;;;;;;11.50;2.30;;;;;;;8.36;59.63;98716.46;231598;198;137419;-56
2024/01/25 02:47:56;;;;;;;9.50;2.30;;;;;;;8.33;60.02;98709.73;231789;205;138171;-56
2024/01/25 02:53:02;;;;;;;7.10;2.30;;;;;;;8.27;60.13;98708.45;231659;199;153588;-51
2024/01/25 02:58:05;;;;;;;9.60;2.20;;;;;;;8.30;60.25;98704.43;231677;198;137731;-55
2024/01/25 03:03:08;;;;;;;12.50;2.10;;;;;;;8.35;59.84;98709.45;231676;203;139632;-52
2024/01/25 03:08:12;;;;;;;6.40;2.20;;;;;;;8.35;59.32;98702.90;231814;202;154614;-55
2024/01/25 03:13:16;;;;;;;9.40;2.40;;;;;;;8.39;58.98;98717.35;231677;205;138038;-53
2024/01/25 03:18:19;;;;;;;8.10;2.10;;;;;;;8.41;58.81;98715.67;231800;199;138359;-53
2024/01/25 03:23:22;;;;;;;8.00;2.10;;;;;;;8.40;58.79;98712.19;231692;199;156009;-55
2024/01/25 03:28:26;;;;;;;7.80;2.10;;;;;;;8.41;58.80;98716.90;231600;205;138398;-56
2024/01/25 03:33:32;;;;;;;7.60;2.00;;;;;;;8.41;58.73;98714.55;231656;197;138466;-56
2024/01/25 03:38:35;;;;;;;7.10;2.00;;;;;;;8.38;58.37;98746.05;231641;197;153930;-56
2024/01/25 03:43:38;;;;;;;9.30;2.30;;;;;;;8.28;59.60;98779.98;231686;197;139680;-56
2024/01/25 03:48:46;;;;;;;8.90;2.10;;;;;;;8.06;62.17;98773.48;231685;205;138221;-55
2024/01/25 03:53:49;;;;;;;9.90;2.10;;;;;;;7.76;63.16;98788.55;231790;198;154304;-53
2024/01/25 03:58:53;;;;;;;10.70;2.20;;;;;;;7.63;63.87;98803.38;231599;205;138188;-55
2024/01/25 04:03:56;;;;;;;9.30;2.40;;;;;;;7.45;65.13;98790.04;231706;205;139053;-55
2024/01/25 04:08:59;;;;;;;6.60;1.90;;;;;;;7.29;65.83;98784.71;231685;198;153824;-54
2024/01/25 04:14:04;;;;;;;6.40;2.00;;;;;;;7.21;66.33;98782.32;231587;197;139569;-55
2024/01/25 04:19:07;;;;;;;8.00;1.90;;;;;;;7.21;66.72;98776.33;231679;198;138352;-56
2024/01/25 04:24:10;;;;;;;11.40;2.50;;;;;;;7.30;66.53;98760.86;231765;198;153307;-54
2024/01/25 04:29:13;;;;;;;10.10;2.20;;;;;;;7.43;66.20;98744.43;231660;205;138413;-56
2024/01/25 04:34:17;;;;;;;12.50;2.50;;;;;;;7.50;65.54;98735.08;231658;198;142701;-53
2024/01/25 04:39:20;;;;;;;8.00;2.20;;;;;;;7.56;65.19;98733.48;231649;198;154451;-54
2024/01/25 04:44:23;;;;;;;8.80;2.40;;;;;;;7.57;64.00;98742.60;231628;197;139078;-55
2024/01/25 04:49:26;;;;;;;9.70;2.10;;;;;;;7.62;62.60;98745.17;231684;198;138159;-55
2024/01/25 04:54:30;;;;;;;8.00;2.10;;;;;;;7.69;61.80;98744.25;231719;204;154001;-54
2024/01/25 04:59:33;;;;;;;8.20;2.10;;;;;;;7.80;60.20;98735.69;231690;198;138640;-53
2024/01/25 05:04:36;;;;;;;9.10;2.30;;;;;;;7.88;59.48;98735.24;231676;202;138586;-55
2024/01/25 05:09:40;;;;;;;7.80;1.60;;;;;;;7.93;58.62;98737.81;231656;198;153082;-55
2024/01/25 05:14:43;;;;;;;9.20;2.30;;;;;;;7.99;58.28;98732.48;231607;198;138579;-56
2024/01/25 05:19:46;;;;;;;6.60;1.80;;;;;;;8.04;57.75;98730.48;231603;198;138329;-56
2024/01/25 05:24:50;;;;;;;7.80;2.00;;;;;;;8.12;57.46;98737.98;231643;202;154493;-54
2024/01/25 05:29:54;;;;;;;8.40;2.10;;;;;;;8.18;57.27;98729.87;231768;205;138739;-56
2024/01/25 05:34:57;;;;;;;9.30;2.20;;;;;;;8.20;56.94;98742.23;231638;198;138612;-54
2024/01/25 05:40:01;;;;;;;10.30;2.40;;;;;;;8.25;57.13;98736.52;231577;198;154539;-57
2024/01/25 05:45:05;;;;;;;5.70;1.60;;;;;;;8.25;57.47;98743.59;231588;203;138744;-56
2024/01/25 05:50:08;;;;;;;9.50;2.40;;;;;;;8.20;57.80;98751.09;231698;202;138054;-56
2024/01/25 05:55:14;;;;;;;5.30;1.50;;;;;;;8.11;58.27;98741.40;231628;202;152964;-56
2024/01/25 06:00:19;;;;;;;9.80;2.10;;;;;;;8.10;58.38;98740.89;231673;203;136959;-57
2024/01/25 06:05:24;;;;;;;28.10;17.60;;;;;;;8.14;58.51;98740.52;231567;197;137433;-55
2024/01/25 06:10:27;;;;;;;9.20;3.10;;;;;;;8.17;58.14;98744.21;231610;198;153939;-55
2024/01/25 06:15:31;;;;;;;13.10;5.60;;;;;;;8.20;58.68;98757.65;231521;203;137246;-55
2024/01/25 06:20:34;;;;;;;11.10;2.40;;;;;;;8.12;59.02;98755.46;231581;198;137425;-55
2024/01/25 06:25:38;;;;;;;11.50;2.50;;;;;;;8.01;59.87;98762.59;231030;205;153280;-55
2024/01/25 06:30:41;;;;;;;9.10;2.50;;;;;;;7.97;60.56;98768.15;231636;205;139091;-55
2024/01/25 06:35:44;;;;;;;11.40;3.50;;;;;;;7.92;61.15;98765.05;231776;198;142018;-57
2024/01/25 06:40:48;;;;;;;11.40;2.40;;;;;;;7.90;61.70;98765.17;231617;198;154141;-55
2024/01/25 06:45:51;;;;;;;9.40;2.40;;;;;;;7.83;62.26;98761.85;231671;198;139666;-56
2024/01/25 06:50:54;;;;;;;9.00;2.30;;;;;;;7.72;62.97;98776.95;231599;198;138455;-57
2024/01/25 06:55:58;;;;;;;9.90;2.30;;;;;;;7.55;64.66;98774.35;231616;198;154136;-57
2024/01/25 07:01:01;;;;;;;5.70;2.00;;;;;;;7.45;65.85;98774.14;231546;198;137910;-54
2024/01/25 07:06:05;;;;;;;7.80;1.90;;;;;;;7.40;66.39;98773.52;231714;202;139339;-56
2024/01/25 07:11:09;;;;;;;6.40;2.10;;;;;;;7.42;66.85;98776.27;231567;202;154288;-55
2024/01/25 07:16:15;;;;;;;9.00;2.00;;;;;;;7.48;66.94;98769.60;231603;198;138676;-56
2024/01/25 07:21:18;;;;;;;8.10;2.20;;;;;;;7.37;67.20;98762.08;231627;205;140017;-55
2024/01/25 07:26:22;;;;;;;11.40;2.10;;;;;;;7.30;67.49;98762.21;231641;198;153404;-56
2024/01/25 07:31:27;;;;;;;10.80;2.20;;;;;;;7.25;67.67;98767.09;231560;205;139081;-56
2024/01/25 07:36:30;;;;;;;82.50;58.80;;;;;;;7.24;67.57;98768.58;231734;204;137428;-55
2024/01/25 07:41:33;;;;;;;16.30;5.90;;;;;;;7.25;67.83;98777.15;231717;198;152990;-56
2024/01/25 07:46:38;;;;;;;6.50;2.40;;;;;;;7.21;67.98;98788.11;231578;202;137764;-55
2024/01/25 07:51:41;;;;;;;10.10;2.40;;;;;;;7.08;68.78;98802.05;231617;198;138159;-56
2024/01/25 07:56:44;;;;;;;11.70;2.70;;;;;;;7.10;69.55;98816.78;231549;198;153383;-56
2024/01/25 08:01:48;;;;;;;271.50;163.70;;;;;;;7.14;69.95;98818.48;231541;198;138920;-62
2024/01/25 08:06:52;;;;;;;146.20;95.50;;;;;;;7.23;70.60;98820.86;231683;198;138857;-56
2024/01/25 08:11:55;;;;;;;11.80;4.40;;;;;;;7.26;70.51;98814.68;231624;198;153907;-55
2024/01/25 08:16:59;;;;;;;11.10;3.10;;;;;;;7.23;70.47;98820.67;231616;198;138244;-56
2024/01/25 08:22:02;;;;;;;10.20;3.20;;;;;;;7.19;70.80;98816.67;231605;199;138064;-56
2024/01/25 08:27:07;;;;;;;9.70;2.90;;;;;;;7.14;71.00;98813.19;231582;198;154217;-54
2024/01/25 08:32:10;;;;;;;9.10;3.20;;;;;;;7.13;71.12;98807.09;231476;202;138148;-53
2024/01/25 08:37:14;;;;;;;11.80;2.50;;;;;;;7.16;71.17;98801.98;231815;204;137293;-55
2024/01/25 08:42:18;;;;;;;12.50;7.10;;;;;;;7.17;71.16;98805.83;231546;198;154558;-55
2024/01/25 08:47:21;;;;;;;37.90;10.50;;;;;;;7.17;71.40;98810.21;231402;198;137099;-55
2024/01/25 08:52:24;;;;;;;11.90;3.20;;;;;;;7.13;71.22;98812.58;231626;198;139466;-54
2024/01/25 08:57:27;;;;;;;12.80;3.10;;;;;;;7.11;71.48;98811.39;231570;198;154414;-53
2024/01/25 09:02:32;;;;;;;8.00;2.80;;;;;;;7.07;71.66;98816.38;231574;198;140093;-55
2024/01/25 09:07:36;;;;;;;14.90;2.80;;;;;;;7.07;71.61;98804.03;231625;205;140216;-55
2024/01/25 09:12:39;;;;;;;8.60;2.60;;;;;;;7.18;71.36;98814.05;231714;198;153693;-55
2024/01/25 09:17:43;;;;;;;11.50;3.20;;;;;;;7.26;70.84;98813.11;231730;205;137807;-55
2024/01/25 09:22:47;;;;;;;7.90;2.70;;;;;;;7.24;70.73;98813.04;231600;198;138185;-56
2024/01/25 09:27:50;;;;;;;13.50;3.30;;;;;;;7.20;70.85;98809.89;231592;198;154314;-56
2024/01/25 09:32:55;;;;;;;11.00;3.20;;;;;;;7.23;70.58;98809.89;231585;198;138783;-56
2024/01/25 09:37:58;;;;;;;12.40;3.10;;;;;;;7.31;70.26;98808.23;231634;203;138708;-57
2024/01/25 09:43:02;;;;;;;14.30;3.20;;;;;;;7.39;69.61;98818.25;231545;205;154167;-56
2024/01/25 09:48:06;;;;;;;12.50;3.30;;;;;;;7.38;69.25;98818.30;231770;205;138301;-56
2024/01/25 09:53:20;;;;;;;13.90;3.60;;;;;;;7.31;69.52;98808.77;231377;206;137686;-55
2024/01/25 09:58:31;;;;;;;18.50;3.50;;;;;;;7.35;68.68;98805.93;231519;205;154469;-56
2024/01/25 10:03:35;;;;;;;11.70;3.10;;;;;;;7.37;68.51;98813.41;231507;197;138693;-57
2024/01/25 10:08:38;;;;;;;11.80;3.00;;;;;;;7.36;68.35;98820.00;231682;205;138208;-57
2024/01/25 10:13:46;;;;;;;11.90;2.80;;;;;;;7.39;68.50;98820.89;231571;198;154269;-55
2024/01/25 10:18:49;;;;;;;12.20;2.90;;;;;;;7.50;67.95;98810.77;231544;202;137609;-53
2024/01/25 10:23:57;;;;;;;10.40;3.00;;;;;;;7.52;67.61;98819.66;231775;203;137781;-56
2024/01/25 10:29:02;;;;;;;10.00;2.30;;;;;;;7.51;67.19;98819.22;231463;198;154299;-56
2024/01/25 10:34:11;;;;;;;11.80;3.20;;;;;;;7.50;67.29;98814.68;231448;199;138315;-57
2024/01/25 10:39:15;;;;;;;14.80;3.20;;;;;;;7.50;66.86;98811.11;231463;203;138021;-57
2024/01/25 10:44:19;;;;;;;9.60;2.70;;;;;;;7.53;66.61;98802.51;231487;199;154900;-56
2024/01/25 10:49:23;;;;;;;10.30;3.10;;;;;;;7.61;66.21;98820.40;231488;203;139036;-56
2024/01/25 10:54:26;;;;;;;14.20;3.40;;;;;;;7.67;65.65;98814.31;231523;198;138329;-56
2024/01/25 10:59:30;;;;;;;18.30;3.50;;;;;;;7.69;65.18;98820.73;231597;198;154832;-56
2024/01/25 11:04:34;;;;;;;14.60;3.40;;;;;;;7.71;64.51;98822.01;231415;200;138093;-57
2024/01/25 11:09:38;;;;;;;10.50;2.90;;;;;;;7.61;64.53;98812.46;231494;206;138605;-56
2024/01/25 11:14:42;;;;;;;13.50;2.60;;;;;;;7.62;65.25;98808.59;231586;199;155424;-56
2024/01/25 11:19:45;;;;;;;13.40;3.60;;;;;;;7.68;65.32;98821.11;231495;199;138028;-56
2024/01/25 11:24:49;;;;;;;14.10;3.10;;;;;;;7.69;65.17;98814.19;231465;199;137884;-58
2024/01/25 11:29:53;;;;;;;11.10;3.30;;;;;;;7.68;65.06;98812.81;231544;198;153138;-56
2024/01/25 11:34:59;;;;;;;11.30;3.20;;;;;;;7.79;64.85;98820.34;231527;198;139066;-58
2024/01/25 11:40:03;;;;;;;9.90;3.00;;;;;;;8.05;63.95;98822.97;231707;205;138869;-57
2024/01/25 11:45:09;;;;;;;12.60;3.00;;;;;;;8.16;62.91;98832.09;231577;198;153162;-56
2024/01/25 11:50:12;;;;;;;9.90;2.60;;;;;;;8.19;62.83;98838.29;231577;198;138408;-57
2024/01/25 11:55:16;;;;;;;9.70;2.90;;;;;;;8.15;62.54;98844.50;231544;205;137419;-56
2024/01/25 12:00:19;;;;;;;14.30;3.10;;;;;;;8.06;62.90;98847.13;231818;198;155480;-56
2024/01/25 12:05:23;;;;;;;12.30;2.90;;;;;;;8.02;63.22;98859.92;231624;199;138068;-56
2024/01/25 12:10:26;;;;;;;10.40;2.80;;;;;;;7.90;63.65;98854.17;231695;199;138298;-57
2024/01/25 12:15:32;;;;;;;11.00;2.70;;;;;;;7.88;63.96;98862.77;231657;199;152963;-57
2024/01/25 12:20:36;;;;;;;15.50;3.20;;;;;;;7.93;64.00;98877.52;231608;202;138069;-57
2024/01/25 12:25:40;;;;;;;12.30;2.80;;;;;;;7.97;63.97;98878.02;231801;198;139280;-56
2024/01/25 12:30:44;;;;;;;106.20;65.10;;;;;;;7.95;64.04;98889.23;231752;198;152297;-56
2024/01/25 12:35:47;;;;;;;19.70;5.00;;;;;;;7.92;64.25;98891.55;231725;198;138456;-55
2024/01/25 12:40:52;;;;;;;8.70;3.00;;;;;;;7.93;64.16;98885.30;231714;201;138141;-55
2024/01/25 12:45:56;;;;;;;13.30;3.40;;;;;;;7.91;64.32;98878.36;231646;205;155106;-54
2024/01/25 12:51:10;;;;;;;12.90;3.40;;;;;;;7.96;64.28;98887.08;231674;198;137971;-56
2024/01/25 12:56:13;;;;;;;15.00;4.00;;;;;;;7.96;63.90;98882.16;231718;198;138224;-55
2024/01/25 13:01:17;;;;;;;13.90;3.30;;;;;;;7.96;63.70;98892.36;231690;198;153472;-56
2024/01/25 13:06:20;;;;;;;49.80;28.70;;;;;;;7.94;63.27;98896.73;231680;199;138653;-56
2024/01/25 13:11:24;;;;;;;12.40;4.40;;;;;;;7.93;63.51;98905.77;231650;198;138078;-54
2024/01/25 13:16:27;;;;;;;12.70;3.10;;;;;;;7.92;63.19;98912.52;231591;205;155096;-55
2024/01/25 13:21:31;;;;;;;14.10;2.80;;;;;;;7.90;62.84;98916.35;231661;198;137642;-54
2024/01/25 13:26:38;;;;;;;9.20;2.90;;;;;;;7.84;62.80;98919.30;231651;197;138362;-55
2024/01/25 13:31:41;;;;;;;9.30;3.20;;;;;;;7.86;62.94;98919.92;231591;205;153781;-53
2024/01/25 13:36:45;;;;;;;10.00;3.00;;;;;;;7.82;62.71;98922.06;231869;197;137707;-55
2024/01/25 13:41:50;;;;;;;14.70;3.40;;;;;;;7.79;62.72;98928.27;231912;201;138014;-56
2024/01/25 13:46:55;;;;;;;9.20;2.80;;;;;;;7.75;63.01;98921.94;231704;204;153160;-54
2024/01/25 13:52:03;;;;;;;11.90;2.90;;;;;;;7.72;63.27;98931.08;231658;197;137658;-56
2024/01/25 13:57:06;;;;;;;12.20;3.50;;;;;;;7.74;63.20;98937.15;231623;201;138499;-55
2024/01/25 14:02:09;;;;;;;12.10;3.20;;;;;;;7.80;62.96;98934.73;231838;204;153785;-56
2024/01/25 14:07:16;;;;;;;49.90;33.60;;;;;;;7.88;62.89;98939.96;231873;198;137642;-57
2024/01/25 14:12:20;;;;;;;12.20;3.30;;;;;;;7.85;62.89;98944.54;232027;201;138333;-57
2024/01/25 14:17:24;;;;;;;13.30;3.10;;;;;;;7.77;63.10;98958.02;231717;204;153133;-55
2024/01/25 14:22:28;;;;;;;10.90;3.20;;;;;;;7.67;63.45;98968.25;231686;197;138231;-57
2024/01/25 14:27:36;;;;;;;8.50;3.20;;;;;;;7.61;64.33;98974.95;231671;201;138512;-58
2024/01/25 14:32:40;;;;;;;10.80;3.20;;;;;;;7.59;64.67;98975.04;231857;204;153920;-55
2024/01/25 14:37:44;;;;;;;10.80;3.10;;;;;;;7.65;64.68;98981.61;231825;204;138994;-56
2024/01/25 14:42:47;;;;;;;29.70;17.00;;;;;;;7.66;65.01;98984.92;231816;197;140069;-57
2024/01/25 14:47:50;;;;;;;12.80;4.10;;;;;;;7.61;65.59;98993.60;231820;198;153380;-57
2024/01/25 14:52:55;;;;;;;11.30;3.20;;;;;;;7.60;65.28;98990.31;231746;197;138249;-56
2024/01/25 14:57:58;;;;;;;11.50;3.50;;;;;;;7.53;65.09;98998.30;231810;203;138151;-59
2024/01/25 15:03:02;;;;;;;11.10;3.10;;;;;;;7.46;65.02;99010.83;231629;198;154152;-62
2024/01/25 15:08:06;;;;;;;10.50;3.10;;;;;;;7.38;65.06;99018.11;231626;198;138212;-59
2024/01/25 15:13:09;;;;;;;10.50;3.20;;;;;;;7.35;65.28;99020.53;231903;204;137839;-60
2024/01/25 15:18:12;;;;;;;9.20;2.90;;;;;;;7.26;66.07;99022.21;231979;201;154026;-60
2024/01/25 15:23:15;;;;;;;9.50;3.40;;;;;;;7.25;66.80;99029.14;231665;198;138583;-60
2024/01/25 15:28:19;;;;;;;11.80;3.30;;;;;;;7.20;67.12;99033.59;231574;205;138948;-60
2024/01/25 15:33:23;;;;;;;14.30;3.40;;;;;;;7.15;67.00;99038.11;231475;198;153806;-60
2024/01/25 15:38:26;;;;;;;14.70;4.30;;;;;;;7.21;67.49;99042.05;231420;205;137538;-60
2024/01/25 15:43:30;;;;;;;16.10;4.20;;;;;;;7.17;67.57;99052.29;231417;205;138179;-60
2024/01/25 15:48:33;;;;;;;12.50;3.90;;;;;;;7.11;68.18;99053.10;231538;198;154344;-60
2024/01/25 15:53:36;;;;;;;13.90;4.00;;;;;;;7.08;68.80;99059.57;231600;198;138837;-59
2024/01/25 15:58:39;;;;;;;16.70;4.10;;;;;;;7.03;69.22;99061.06;231465;203;140151;-60
2024/01/25 16:03:43;;;;;;;14.00;4.20;;;;;;;6.99;69.00;99065.29;231486;197;153387;-60
2024/01/25 16:08:47;;;;;;;14.90;4.10;;;;;;;7.03;68.91;99064.77;231481;203;138486;-60
2024/01/25 16:13:51;;;;;;;14.00;3.70;;;;;;;7.03;68.95;99070.06;231215;199;138639;-60
2024/01/25 16:18:54;;;;;;;12.00;3.50;;;;;;;7.00;68.86;99076.70;231550;198;153086;-59
2024/01/25 16:23:58;;;;;;;8.60;2.80;;;;;;;6.94;68.92;99096.77;231698;198;138216;-60
2024/01/25 16:29:02;;;;;;;14.50;4.80;;;;;;;6.99;68.99;99098.98;231515;205;138779;-58
2024/01/25 16:34:05;;;;;;;46.40;24.40;;;;;;;7.12;68.24;99106.86;231500;198;154543;-60
2024/01/25 16:39:08;;;;;;;9.70;3.80;;;;;;;7.16;67.97;99113.71;231455;202;139421;-60
2024/01/25 16:44:12;;;;;;;13.40;3.30;;;;;;;7.16;68.19;99131.41;231465;198;138666;-58
2024/01/25 16:49:15;;;;;;;9.80;3.20;;;;;;;7.03;68.88;99137.42;231467;202;154121;-59
2024/01/25 16:54:18;;;;;;;13.90;3.70;;;;;;;7.02;69.07;99146.86;231634;202;138043;-56
2024/01/25 16:59:22;;;;;;;12.20;3.30;;;;;;;7.03;69.28;99150.30;231455;197;138673;-56
2024/01/25 17:04:25;;;;;;;12.80;3.70;;;;;;;7.01;69.22;99163.26;231335;198;153971;-57
2024/01/25 17:09:28;;;;;;;15.80;4.20;;;;;;;6.99;69.34;99169.55;231512;198;139557;-58
2024/01/25 17:14:31;;;;;;;17.90;3.80;;;;;;;7.01;69.39;99173.34;231451;205;138310;-59
2024/01/25 17:19:35;;;;;;;11.90;3.50;;;;;;;7.00;69.40;99189.97;231451;197;152523;-57
2024/01/25 17:24:39;;;;;;;8.00;3.00;;;;;;;6.92;69.48;99187.52;231470;197;137516;-58
2024/01/25 17:29:42;;;;;;;11.80;3.80;;;;;;;6.92;69.49;99190.14;231670;205;138629;-58
2024/01/25 17:34:46;;;;;;;28.70;15.60;;;;;;;7.00;69.82;99195.80;231377;199;153107;-58
2024/01/25 17:39:49;;;;;;;12.90;3.70;;;;;;;7.05;69.34;99192.56;231429;203;138426;-58
2024/01/25 17:44:53;;;;;;;14.30;4.00;;;;;;;6.99;69.61;99196.88;231496;198;138727;-57
2024/01/25 17:49:56;;;;;;;12.60;4.00;;;;;;;6.89;69.89;99207.90;231388;206;154006;-57
2024/01/25 17:55:00;;;;;;;14.30;3.70;;;;;;;6.79;70.65;99210.13;231403;199;140179;-57
2024/01/25 18:00:04;;;;;;;11.70;3.60;;;;;;;6.80;71.01;99225.59;231549;198;138457;-58
2024/01/25 18:05:07;;;;;;;13.40;3.80;;;;;;;6.82;71.10;99227.80;231443;199;154001;-58
2024/01/25 18:10:13;;;;;;;15.50;5.90;;;;;;;6.87;71.19;99230.59;231460;203;137963;-57
2024/01/25 18:15:18;;;;;;;20.20;9.20;;;;;;;6.97;71.62;99241.27;231521;205;138320;-57
2024/01/25 18:20:21;;;;;;;15.20;4.90;;;;;;;6.98;71.36;99239.83;231612;198;153228;-57
2024/01/25 18:25:25;;;;;;;10.80;4.00;;;;;;;6.80;71.98;99244.65;231512;202;139511;-57
2024/01/25 18:30:29;;;;;;;12.70;3.80;;;;;;;6.68;72.40;99231.40;231517;199;138624;-57
2024/01/25 18:35:32;;;;;;;20.50;7.40;;;;;;;6.73;72.65;99227.69;231600;205;153437;-58
2024/01/25 18:40:35;;;;;;;12.10;4.00;;;;;;;6.82;72.62;99226.57;231400;198;137825;-58
2024/01/25 18:45:38;;;;;;;46.10;29.50;;;;;;;6.83;72.68;99230.22;231563;198;138165;-57
2024/01/25 18:50:43;;;;;;;13.30;4.70;;;;;;;6.81;72.48;99239.27;231570;199;153316;-55
2024/01/25 18:55:46;;;;;;;11.90;4.30;;;;;;;6.79;72.43;99241.85;231498;198;138246;-57
2024/01/25 19:00:50;;;;;;;13.40;4.20;;;;;;;6.77;72.29;99243.70;231470;199;138048;-55
2024/01/25 19:05:57;;;;;;;15.40;4.70;;;;;;;6.67;72.18;99240.09;231614;198;153821;-57
2024/01/25 19:11:01;;;;;;;13.50;4.50;;;;;;;6.60;72.37;99238.62;231352;202;140610;-55
2024/01/25 19:16:05;;;;;;;14.30;4.70;;;;;;;6.57;72.14;99237.87;231540;198;139108;-55
2024/01/25 19:21:08;;;;;;;15.00;4.90;;;;;;;6.52;72.08;99243.04;231539;199;154637;-56
2024/01/25 19:26:13;;;;;;;15.40;4.40;;;;;;;6.49;72.19;99243.33;231489;199;138237;-56
2024/01/25 19:31:16;;;;;;;184.80;131.40;;;;;;;6.51;72.21;99246.25;231510;199;140874;-55
2024/01/25 19:36:19;;;;;;;37.10;16.10;;;;;;;6.65;72.36;99258.69;231639;205;153860;-56
2024/01/25 19:41:23;;;;;;;22.80;5.50;;;;;;;6.76;72.06;99263.86;231354;198;138768;-57
2024/01/25 19:46:26;;;;;;;13.50;4.50;;;;;;;6.61;72.44;99271.91;231548;198;138303;-58
2024/01/25 19:51:29;;;;;;;14.50;4.70;;;;;;;6.54;72.88;99269.21;231518;199;154324;-57
2024/01/25 19:56:32;;;;;;;14.80;4.90;;;;;;;6.50;73.19;99271.63;231542;199;137929;-57
2024/01/25 20:01:36;;;;;;;11.90;4.40;;;;;;;6.51;73.43;99273.39;231459;206;138787;-54
2024/01/25 20:06:40;;;;;;;19.50;5.30;;;;;;;6.53;73.53;99271.35;231524;198;154144;-58
2024/01/25 20:11:43;;;;;;;16.00;4.40;;;;;;;6.58;73.37;99275.21;231582;198;138913;-57
2024/01/25 20:16:47;;;;;;;12.60;4.70;;;;;;;6.59;73.20;99277.81;231583;199;138351;-57
2024/01/25 20:21:50;;;;;;;13.80;4.30;;;;;;;6.54;72.72;99284.52;231505;202;154163;-54
2024/01/25 20:26:53;;;;;;;12.90;4.70;;;;;;;6.50;72.91;99288.42;231544;198;139187;-59
2024/01/25 20:31:57;;;;;;;13.90;4.70;;;;;;;6.45;73.00;99288.05;231513;202;137401;-57
2024/01/25 20:37:00;;;;;;;14.40;4.50;;;;;;;6.50;72.91;99288.73;231250;198;154897;-56
2024/01/25 20:42:04;;;;;;;11.90;4.50;;;;;;;6.60;72.45;99287.09;231633;198;142674;-58
2024/01/25 20:47:07;;;;;;;86.90;52.40;;;;;;;6.67;72.35;99288.91;231506;198;137539;-59
2024/01/25 20:52:10;;;;;;;18.90;7.40;;;;;;;6.76;72.65;99291.00;231551;198;153584;-58
2024/01/25 20:57:14;;;;;;;14.00;5.20;;;;;;;6.81;72.09;99289.19;231464;198;138494;-58
2024/01/25 21:02:17;;;;;;;16.00;5.40;;;;;;;6.75;71.89;99283.46;231569;198;138393;-58
2024/01/25 21:07:21;;;;;;;15.00;5.30;;;;;;;6.63;72.06;99287.16;231539;197;154284;-58
2024/01/25 21:12:24;;;;;;;13.20;4.90;;;;;;;6.52;72.62;99289.01;231671;198;138762;-59
2024/01/25 21:17:28;;;;;;;19.10;5.80;;;;;;;6.44;72.64;99290.23;231648;197;138588;-58
2024/01/25 21:22:31;;;;;;;22.20;6.20;;;;;;;6.53;72.63;99296.23;231513;198;153480;-58
2024/01/25 21:27:35;;;;;;;16.40;5.60;;;;;;;6.54;72.40;99302.16;231516;198;139895;-55
2024/01/25 21:32:38;;;;;;;18.20;5.60;;;;;;;6.48;72.52;99300.64;231574;198;138296;-59
2024/01/25 21:37:41;;;;;;;14.30;4.30;;;;;;;6.42;72.47;99316.58;231605;198;153778;-58
2024/01/25 21:42:44;;;;;;;13.00;4.20;;;;;;;6.46;72.05;99316.94;231510;202;138421;-58
2024/01/25 21:47:48;;;;;;;16.10;4.80;;;;;;;6.52;72.09;99324.81;231642;198;138691;-57
2024/01/25 21:52:51;;;;;;;12.90;4.20;;;;;;;6.61;71.93;99328.84;231514;199;156619;-56
2024/01/25 21:57:55;;;;;;;15.10;4.40;;;;;;;6.70;71.64;99334.31;231653;198;139999;-57
2024/01/25 22:02:59;;;;;;;16.80;4.20;;;;;;;6.72;71.08;99345.30;231580;199;140714;-58
2024/01/25 22:08:04;;;;;;;12.20;3.70;;;;;;;6.68;70.27;99361.88;231583;198;152996;-59
2024/01/25 22:13:07;;;;;;;8.20;3.30;;;;;;;6.60;70.11;99366.60;231503;198;137482;-58
2024/01/25 22:18:10;;;;;;;12.00;3.40;;;;;;;6.51;70.08;99368.38;231679;202;138523;-58
2024/01/25 22:23:14;;;;;;;8.70;3.90;;;;;;;6.55;69.93;99374.92;231418;202;154102;-56
2024/01/25 22:28:17;;;;;;;13.20;3.60;;;;;;;6.67;69.39;99380.41;231515;202;137852;-58
2024/01/25 22:33:20;;;;;;;10.80;3.10;;;;;;;6.76;68.56;99384.66;231636;198;139648;-57
2024/01/25 22:38:24;;;;;;;14.00;3.40;;;;;;;6.78;67.96;99396.02;231557;198;153763;-57
2024/01/25 22:43:27;;;;;;;12.00;3.20;;;;;;;6.79;67.82;99397.54;231538;206;138540;-58
2024/01/25 22:48:31;;;;;;;8.10;2.70;;;;;;;6.76;67.49;99397.00;231563;199;138636;-57
2024/01/25 22:53:36;;;;;;;8.50;3.40;;;;;;;6.73;67.59;99407.17;231689;202;154217;-58
2024/01/25 22:58:40;;;;;;;10.20;3.20;;;;;;;6.67;67.68;99418.35;231515;206;139174;-57
2024/01/25 23:03:43;;;;;;;9.30;3.10;;;;;;;6.59;68.05;99428.50;231541;198;138065;-55
2024/01/25 23:08:46;;;;;;;9.30;3.00;;;;;;;6.50;68.40;99431.36;231601;205;153144;-61
2024/01/25 23:13:49;;;;;;;9.20;2.90;;;;;;;6.48;68.88;99442.52;231577;198;138225;-57
2024/01/25 23:18:53;;;;;;;8.50;2.80;;;;;;;6.52;69.27;99452.78;231543;198;137566;-56
2024/01/25 23:23:56;;;;;;;7.30;2.70;;;;;;;6.60;69.51;99455.42;231674;198;153110;-58
2024/01/25 23:28:59;;;;;;;5.20;2.00;;;;;;;6.69;69.55;99458.99;231499;201;138216;-58
2024/01/25 23:34:03;;;;;;;6.50;2.10;;;;;;;6.70;69.29;99470.25;231586;197;138275;-57